Time;durP1;ratioP1;P1;durP2;ratioP2;P2;SDS_P1;SDS_P2;PMS_P1;PMS_P2;Temp;Humidity;BMP_temperature;BMP_pressure;BME280_temperature;BME280_humidity;BME280_pressure;Samples;Min_cycle;Max_cycle;Signal;HPM_P1;HPM_P2
2022/05/17 00:02:18;;;;;;;3.17;2.05;;;21.90;56.00;;;;;;4940945;29;20038;-58
2022/05/17 00:04:43;;;;;;;3.28;2.10;;;21.90;56.00;;;;;;4948419;28;20105;-60
2022/05/17 00:07:09;;;;;;;2.95;1.73;;;21.90;56.00;;;;;;4950105;28;20031;-60
2022/05/17 00:09:34;;;;;;;3.22;2.08;;;21.90;56.00;;;;;;4948121;29;20062;-59
2022/05/17 00:12:00;;;;;;;2.53;1.85;;;21.90;56.00;;;;;;4949266;29;20403;-61
2022/05/17 00:14:27;;;;;;;3.90;1.95;;;21.90;56.00;;;;;;4950285;28;20291;-58
2022/05/17 00:16:53;;;;;;;3.60;2.05;;;21.90;56.00;;;;;;4950091;28;20047;-63
2022/05/17 00:19:20;;;;;;;3.63;2.10;;;21.90;55.90;;;;;;4949449;28;20035;-59
2022/05/17 00:21:48;;;;;;;3.20;2.00;;;21.90;55.90;;;;;;4949584;29;20117;-58
2022/05/17 00:24:16;;;;;;;3.60;1.88;;;21.90;56.40;;;;;;4947464;28;20083;-59
2022/05/17 00:26:41;;;;;;;2.95;2.00;;;21.90;55.80;;;;;;4950563;28;20047;-59
2022/05/17 00:29:07;;;;;;;3.88;2.03;;;21.80;55.70;;;;;;4948667;28;20046;-58
2022/05/17 00:31:34;;;;;;;4.55;2.20;;;21.80;55.70;;;;;;4946929;29;20045;-59
2022/05/17 00:34:02;;;;;;;2.55;1.73;;;21.90;55.70;;;;;;4947941;29;20035;-60
2022/05/17 00:36:29;;;;;;;3.03;1.95;;;21.80;55.70;;;;;;4936966;29;20636;-58
2022/05/17 00:38:54;;;;;;;2.85;2.22;;;21.80;55.70;;;;;;4945467;28;20043;-60
2022/05/17 00:41:20;;;;;;;5.00;2.22;;;21.90;55.70;;;;;;4947561;29;20046;-59
2022/05/17 00:46:37;;;;;;;2.78;1.90;;;21.80;55.70;;;;;;4947885;29;20098;-59
2022/05/17 00:49:04;;;;;;;5.25;2.53;;;21.80;55.60;;;;;;4947469;28;20057;-60
2022/05/17 00:51:30;;;;;;;2.67;2.03;;;21.80;55.60;;;;;;4949013;29;20098;-59
2022/05/17 00:54:12;;;;;;;3.05;2.17;;;21.80;55.60;;;;;;4947811;29;20047;-60
2022/05/17 00:57:05;;;;;;;3.20;1.95;;;21.90;55.60;;;;;;4948472;29;20698;-60
2022/05/17 00:59:32;;;;;;;2.67;2.05;;;21.80;55.50;;;;;;4946458;29;20524;-59
2022/05/17 01:01:58;;;;;;;3.42;1.95;;;21.80;55.60;;;;;;4946432;29;20839;-58
2022/05/17 01:04:25;;;;;;;2.30;1.88;;;21.80;55.60;;;;;;4946790;28;20083;-59
2022/05/17 01:07:00;;;;;;;2.78;1.92;;;21.80;55.50;;;;;;4948740;28;20074;-58
2022/05/17 01:09:26;;;;;;;2.05;1.73;;;21.80;55.50;;;;;;4948502;28;20069;-59
2022/05/17 01:11:51;;;;;;;2.78;1.90;;;21.80;55.50;;;;;;4948507;28;20223;-60
2022/05/17 01:17:02;;;;;;;3.53;1.88;;;21.80;55.50;;;;;;4948676;29;20089;-60
2022/05/17 01:19:28;;;;;;;3.42;2.03;;;21.80;55.40;;;;;;4948345;29;20130;-60
2022/05/17 01:21:53;;;;;;;3.45;1.88;;;21.80;55.40;;;;;;4948300;28;20427;-59
2022/05/17 01:24:19;;;;;;;3.05;1.83;;;21.80;55.40;;;;;;4948590;29;20042;-58
2022/05/17 01:26:48;;;;;;;3.88;2.03;;;21.80;55.40;;;;;;4948365;28;20066;-59
2022/05/17 01:29:14;;;;;;;2.30;1.92;;;21.80;55.30;;;;;;4945479;28;20047;-60
2022/05/17 01:31:40;;;;;;;4.03;2.10;;;21.80;55.30;;;;;;4946955;29;20484;-59
2022/05/17 01:34:07;;;;;;;3.90;2.00;;;21.80;55.30;;;;;;4948612;28;20063;-59
2022/05/17 01:36:33;;;;;;;3.95;1.88;;;21.80;55.20;;;;;;4947286;28;20047;-62
2022/05/17 01:38:58;;;;;;;2.42;1.77;;;21.80;55.30;;;;;;4947833;29;20102;-60
2022/05/17 01:41:25;;;;;;;6.13;2.33;;;21.80;55.20;;;;;;4945623;29;20484;-60
2022/05/17 01:43:52;;;;;;;3.15;1.58;;;21.80;55.30;;;;;;4936740;29;20055;-59
2022/05/17 01:46:19;;;;;;;3.95;2.00;;;21.80;55.20;;;;;;4947279;28;20046;-60
2022/05/17 01:48:45;;;;;;;3.20;2.05;;;21.80;55.20;;;;;;4948730;29;20043;-60
2022/05/17 01:51:11;;;;;;;3.03;2.00;;;21.80;55.20;;;;;;4945593;28;20102;-59
2022/05/17 01:53:37;;;;;;;3.28;1.88;;;21.80;55.10;;;;;;4948183;28;20456;-59
2022/05/17 01:56:04;;;;;;;3.63;2.00;;;21.80;55.10;;;;;;4947890;29;20051;-61
2022/05/17 01:58:30;;;;;;;3.90;2.20;;;21.80;55.10;;;;;;4947190;28;20074;-59
2022/05/17 02:00:55;;;;;;;4.32;2.30;;;21.80;55.10;;;;;;4940999;28;20150;-60
2022/05/17 02:03:21;;;;;;;2.85;1.90;;;21.80;55.10;;;;;;4942831;28;20105;-59
2022/05/17 02:05:46;;;;;;;2.95;2.00;;;21.80;55.10;;;;;;4944044;29;20464;-60
2022/05/17 02:08:12;;;;;;;3.38;1.98;;;21.70;55.00;;;;;;4947242;28;20118;-59
2022/05/17 02:10:38;;;;;;;4.60;2.25;;;21.80;55.10;;;;;;4946151;28;20039;-60
2022/05/17 02:13:04;;;;;;;3.92;2.03;;;21.80;55.80;;;;;;4944795;29;20043;-60
2022/05/17 02:15:30;;;;;;;2.15;1.85;;;21.80;55.00;;;;;;4946703;29;20035;-59
2022/05/17 02:17:56;;;;;;;3.13;2.00;;;21.70;55.00;;;;;;4947328;28;20051;-60
2022/05/17 02:20:22;;;;;;;2.50;1.83;;;21.80;55.00;;;;;;4945040;29;20051;-59
2022/05/17 02:22:48;;;;;;;4.18;2.20;;;21.70;55.00;;;;;;4947616;28;20043;-59
2022/05/17 02:25:13;;;;;;;3.53;1.73;;;21.80;54.90;;;;;;4945612;28;20047;-60
2022/05/17 02:27:39;;;;;;;4.60;1.83;;;21.70;54.90;;;;;;4947674;29;20129;-59
2022/05/17 02:30:07;;;;;;;4.38;2.30;;;21.70;54.90;;;;;;4946694;28;20041;-58
2022/05/17 02:32:33;;;;;;;3.83;2.10;;;21.80;54.90;;;;;;4946140;29;20082;-60
2022/05/17 02:34:58;;;;;;;2.28;1.80;;;21.80;54.90;;;;;;4946439;29;20035;-60
2022/05/17 02:37:24;;;;;;;4.40;1.83;;;21.70;54.80;;;;;;4946435;28;20130;-60
2022/05/17 02:39:50;;;;;;;3.22;2.22;;;21.70;54.80;;;;;;4946201;28;20122;-59
2022/05/17 02:42:15;;;;;;;3.63;1.77;;;21.80;54.90;;;;;;4946256;28;20484;-58
2022/05/17 02:44:41;;;;;;;3.35;1.90;;;21.70;54.80;;;;;;4947234;29;20059;-60
2022/05/17 02:47:11;;;;;;;2.20;1.85;;;21.70;54.80;;;;;;4946271;28;20379;-61
2022/05/17 02:49:40;;;;;;;2.88;2.00;;;21.70;54.80;;;;;;4946945;29;20384;-58
2022/05/17 02:52:06;;;;;;;2.72;2.03;;;21.70;54.80;;;;;;4946323;29;20106;-62
2022/05/17 02:54:32;;;;;;;3.25;1.85;;;21.70;54.80;;;;;;4944824;28;20162;-60
2022/05/17 02:56:57;;;;;;;4.90;2.10;;;21.70;54.80;;;;;;4946582;29;20074;-59
2022/05/17 02:59:23;;;;;;;4.45;2.30;;;21.70;54.80;;;;;;4947130;28;20497;-60
2022/05/17 03:01:49;;;;;;;3.88;2.13;;;21.70;54.80;;;;;;4945186;28;21049;-59
2022/05/17 03:04:15;;;;;;;3.05;1.83;;;21.70;54.80;;;;;;4946043;29;20081;-59
2022/05/17 03:06:42;;;;;;;3.15;2.10;;;21.70;54.80;;;;;;4947267;28;20102;-59
2022/05/17 03:09:09;;;;;;;3.22;2.13;;;21.70;54.80;;;;;;4946052;29;20101;-59
2022/05/17 03:11:35;;;;;;;3.30;1.90;;;21.70;54.80;;;;;;4944905;28;20193;-58
2022/05/17 03:14:01;;;;;;;3.22;2.13;;;21.70;54.70;;;;;;4946604;29;20110;-59
2022/05/17 03:16:31;;;;;;;3.65;2.25;;;21.70;54.70;;;;;;4945029;29;20042;-62
2022/05/17 03:19:00;;;;;;;3.42;1.90;;;21.70;54.70;;;;;;4946138;29;20082;-59
2022/05/17 03:21:26;;;;;;;5.90;2.00;;;21.70;54.60;;;;;;4946269;29;20508;-60
2022/05/17 03:23:52;;;;;;;4.07;2.00;;;21.70;54.60;;;;;;4946899;29;20047;-59
2022/05/17 03:26:18;;;;;;;3.35;2.05;;;21.70;54.60;;;;;;4941069;29;20047;-59
2022/05/17 03:28:43;;;;;;;5.95;2.47;;;21.70;54.60;;;;;;4940342;29;20522;-59
2022/05/17 03:31:10;;;;;;;3.80;2.00;;;21.70;54.60;;;;;;4946216;28;20535;-59
2022/05/17 03:33:37;;;;;;;4.80;2.20;;;21.70;54.60;;;;;;4946308;28;20460;-58
2022/05/17 03:36:03;;;;;;;2.83;2.08;;;21.70;54.60;;;;;;4943141;29;20039;-59
2022/05/17 03:38:29;;;;;;;3.90;2.08;;;21.70;54.50;;;;;;4946818;28;20035;-60
2022/05/17 03:40:54;;;;;;;3.42;2.15;;;21.70;54.50;;;;;;4945877;29;20403;-61
2022/05/17 03:43:20;;;;;;;4.32;1.90;;;21.70;54.50;;;;;;4946172;28;20047;-58
2022/05/17 03:45:47;;;;;;;4.10;2.58;;;21.70;54.50;;;;;;4951711;28;20559;-60
2022/05/17 03:48:13;;;;;;;2.97;2.00;;;21.60;54.40;;;;;;4946519;28;20388;-60
2022/05/17 03:50:39;;;;;;;2.60;1.85;;;21.70;55.20;;;;;;4946162;28;20073;-59
2022/05/17 03:53:05;;;;;;;3.08;1.88;;;21.70;54.50;;;;;;4945410;28;20043;-59
2022/05/17 03:55:31;;;;;;;3.58;1.90;;;21.70;54.40;;;;;;4945534;28;20485;-62
2022/05/17 03:57:57;;;;;;;2.88;2.15;;;21.70;54.40;;;;;;4945816;28;20121;-61
2022/05/17 04:00:23;;;;;;;2.60;1.95;;;21.60;54.30;;;;;;4944673;28;20043;-60
2022/05/17 04:02:49;;;;;;;2.15;1.70;;;21.70;54.40;;;;;;4940197;28;20387;-60
2022/05/17 04:05:16;;;;;;;2.85;2.00;;;21.70;54.40;;;;;;4943397;28;20043;-60
2022/05/17 04:07:42;;;;;;;2.95;2.00;;;21.60;54.30;;;;;;4943375;29;20049;-59
2022/05/17 04:10:10;;;;;;;3.40;1.95;;;21.60;54.30;;;;;;4945027;29;20363;-60
2022/05/17 04:12:35;;;;;;;3.15;2.10;;;21.60;54.20;;;;;;4945111;29;20035;-58
2022/05/17 04:15:02;;;;;;;2.05;1.70;;;21.60;54.10;;;;;;4948010;29;20391;-59
2022/05/17 04:17:28;;;;;;;4.05;1.80;;;21.60;54.10;;;;;;4954557;28;20031;-61
2022/05/17 04:19:53;;;;;;;3.47;1.88;;;21.60;54.10;;;;;;4947846;29;20057;-59
2022/05/17 04:22:19;;;;;;;3.50;1.80;;;21.60;54.10;;;;;;4947827;29;20054;-59
2022/05/17 04:24:45;;;;;;;3.40;1.92;;;21.60;54.10;;;;;;4949006;29;20050;-60
2022/05/17 04:27:12;;;;;;;2.65;1.92;;;21.60;54.10;;;;;;4948961;29;20498;-59
2022/05/17 04:29:38;;;;;;;3.85;1.75;;;21.60;54.10;;;;;;4949239;29;20043;-58
2022/05/17 04:32:05;;;;;;;3.58;1.80;;;21.60;54.10;;;;;;4948825;28;20281;-58
2022/05/17 04:34:31;;;;;;;2.50;2.03;;;21.60;54.10;;;;;;4948329;28;20047;-59
2022/05/17 04:36:57;;;;;;;3.10;1.70;;;21.60;53.90;;;;;;4947105;28;20050;-61
2022/05/17 04:39:24;;;;;;;5.40;2.75;;;21.60;53.90;;;;;;4943108;28;20082;-61
2022/05/17 04:41:50;;;;;;;4.25;1.95;;;21.60;54.00;;;;;;4948886;28;20050;-63
2022/05/17 04:44:15;;;;;;;3.20;1.90;;;21.60;54.00;;;;;;4948323;29;20407;-60
2022/05/17 04:46:41;;;;;;;5.35;2.40;;;21.60;54.80;;;;;;4948963;29;20138;-59
2022/05/17 04:49:07;;;;;;;4.63;2.33;;;21.60;54.10;;;;;;4947344;28;20523;-59
2022/05/17 04:51:34;;;;;;;3.60;2.47;;;21.60;54.20;;;;;;4946528;29;20039;-59
2022/05/17 04:54:00;;;;;;;5.50;2.33;;;21.60;54.20;;;;;;4943696;29;20175;-59
2022/05/17 04:56:26;;;;;;;4.50;2.22;;;21.60;54.30;;;;;;4946591;29;20039;-62
2022/05/17 04:58:51;;;;;;;4.70;2.70;;;21.60;54.20;;;;;;4945025;29;20484;-58
2022/05/17 05:01:17;;;;;;;4.18;2.53;;;21.60;54.30;;;;;;4945198;29;20051;-57
2022/05/17 05:03:43;;;;;;;5.25;2.40;;;21.70;54.40;;;;;;4944441;29;20507;-58
2022/05/17 05:06:08;;;;;;;4.20;2.13;;;21.70;54.50;;;;;;4944775;29;20035;-59
2022/05/17 05:08:34;;;;;;;5.80;2.20;;;21.70;54.70;;;;;;4945518;28;20043;-59
2022/05/17 05:11:00;;;;;;;5.18;2.50;;;21.70;54.50;;;;;;4942518;29;20051;-59
2022/05/17 05:13:25;;;;;;;4.63;2.30;;;21.70;54.60;;;;;;4943283;29;20042;-59
2022/05/17 05:15:54;;;;;;;4.47;2.38;;;21.70;54.60;;;;;;4943834;29;20098;-60
2022/05/17 05:18:19;;;;;;;4.05;2.13;;;21.70;54.70;;;;;;4945793;29;20027;-62
2022/05/17 05:20:45;;;;;;;5.93;2.40;;;21.70;54.60;;;;;;4944391;29;20530;-59
2022/05/17 05:23:11;;;;;;;4.82;2.40;;;21.70;54.70;;;;;;4947468;29;20541;-59
2022/05/17 05:25:37;;;;;;;4.18;2.65;;;21.70;54.50;;;;;;4946096;28;20047;-59
2022/05/17 05:28:05;;;;;;;2.90;2.45;;;21.70;54.60;;;;;;4947666;29;20935;-61
2022/05/17 05:30:31;;;;;;;4.97;2.70;;;21.70;54.80;;;;;;4947939;29;20055;-60
2022/05/17 05:32:57;;;;;;;3.75;2.13;;;21.70;54.80;;;;;;4948544;29;20878;-62
2022/05/17 05:35:24;;;;;;;5.95;2.60;;;21.80;54.90;;;;;;4948576;28;20145;-57
2022/05/17 05:37:51;;;;;;;4.07;2.10;;;21.70;54.90;;;;;;4948490;28;20523;-60
2022/05/17 05:40:16;;;;;;;5.47;2.28;;;21.70;54.90;;;;;;4947981;29;20539;-61
2022/05/17 05:42:43;;;;;;;5.50;2.40;;;21.70;55.10;;;;;;4948533;28;20042;-57
2022/05/17 05:45:10;;;;;;;4.38;2.30;;;21.70;54.80;;;;;;4948393;29;20172;-60
2022/05/17 05:47:36;;;;;;;3.95;2.42;;;21.70;54.80;;;;;;4939683;28;20047;-61
2022/05/17 05:50:01;;;;;;;5.32;2.25;;;21.70;54.70;;;;;;4949021;28;20039;-59
2022/05/17 05:52:27;;;;;;;5.78;2.30;;;21.70;54.70;;;;;;4948400;28;20051;-58
2022/05/17 05:54:52;;;;;;;4.90;2.08;;;21.70;54.70;;;;;;4947411;29;20040;-58
2022/05/17 05:57:18;;;;;;;6.80;2.47;;;21.70;54.70;;;;;;4946111;29;20039;-59
2022/05/17 05:59:44;;;;;;;12.07;4.93;;;21.70;55.40;;;;;;4947046;29;20402;-60
2022/05/17 06:02:10;;;;;;;10.80;4.38;;;21.70;55.10;;;;;;4947031;28;20431;-58
2022/05/17 06:04:36;;;;;;;9.48;3.70;;;21.70;55.40;;;;;;4947553;28;20039;-60
2022/05/17 06:07:03;;;;;;;9.32;3.63;;;21.70;55.40;;;;;;4948358;28;20049;-61
2022/05/17 06:09:29;;;;;;;9.82;3.53;;;21.70;55.30;;;;;;4947121;29;20039;-58
2022/05/17 06:11:55;;;;;;;12.68;3.60;;;21.70;55.50;;;;;;4945758;29;20054;-60
2022/05/17 06:14:21;;;;;;;11.32;4.10;;;21.70;55.50;;;;;;4946639;28;20051;-63
2022/05/17 06:16:51;;;;;;;11.35;4.13;;;21.70;55.70;;;;;;4947088;29;20047;-57
2022/05/17 06:19:18;;;;;;;12.07;4.32;;;21.80;55.90;;;;;;4946630;29;20042;-60
2022/05/17 06:21:43;;;;;;;10.05;4.25;;;21.70;55.60;;;;;;4946952;29;20075;-58
2022/05/17 06:24:09;;;;;;;10.13;3.83;;;21.80;56.00;;;;;;4960815;28;20068;-58
2022/05/17 06:26:35;;;;;;;8.13;3.75;;;21.70;56.00;;;;;;4939303;29;20407;-58
2022/05/17 06:29:02;;;;;;;8.45;3.70;;;21.70;55.80;;;;;;4948010;29;20486;-58
2022/05/17 06:31:28;;;;;;;9.52;3.78;;;21.70;56.00;;;;;;4947875;29;20043;-60
2022/05/17 06:33:53;;;;;;;6.38;3.60;;;21.80;56.20;;;;;;4947671;28;20066;-58
2022/05/17 06:36:19;;;;;;;7.70;3.50;;;21.70;56.20;;;;;;4946968;28;20122;-58
2022/05/17 06:38:44;;;;;;;8.27;3.50;;;21.80;56.10;;;;;;4947360;29;20098;-59
2022/05/17 06:41:10;;;;;;;6.43;3.22;;;21.80;56.20;;;;;;4955178;28;20620;-59
2022/05/17 06:43:36;;;;;;;7.45;3.13;;;21.80;56.20;;;;;;4947504;29;20047;-61
2022/05/17 06:46:04;;;;;;;7.47;3.08;;;21.80;56.30;;;;;;4947202;28;20587;-59
2022/05/17 06:48:30;;;;;;;8.90;3.58;;;21.80;56.20;;;;;;4947791;29;20058;-58
2022/05/17 06:51:07;;;;;;;6.07;2.90;;;21.80;56.30;;;;;;4947617;29;20135;-60
2022/05/17 06:53:33;;;;;;;7.60;3.08;;;21.80;56.40;;;;;;4946346;29;20047;-60
2022/05/17 06:55:59;;;;;;;5.30;2.53;;;21.80;56.40;;;;;;4947102;29;20119;-59
2022/05/17 06:58:28;;;;;;;5.20;2.58;;;21.80;56.40;;;;;;4947588;29;20483;-58
2022/05/17 07:00:55;;;;;;;6.00;2.53;;;21.80;56.40;;;;;;4952407;28;20137;-58
2022/05/17 07:03:20;;;;;;;6.18;2.60;;;21.80;56.40;;;;;;4946884;28;20410;-60
2022/05/17 07:05:46;;;;;;;7.75;3.10;;;21.80;56.40;;;;;;4946559;29;20542;-61
2022/05/17 07:08:11;;;;;;;6.55;2.75;;;21.80;56.40;;;;;;4947300;28;20420;-63
2022/05/17 07:13:21;;;;;;;4.18;2.47;;;21.80;56.30;;;;;;4944893;29;20180;-59
2022/05/17 07:15:48;;;;;;;7.07;3.17;;;21.80;56.40;;;;;;4946737;29;20484;-59
2022/05/17 07:18:17;;;;;;;5.88;2.78;;;21.90;56.40;;;;;;4946955;29;20035;-58
2022/05/17 07:20:44;;;;;;;6.35;2.63;;;21.80;56.40;;;;;;4946162;29;20062;-60
2022/05/17 07:23:10;;;;;;;5.50;2.50;;;21.80;56.40;;;;;;4947182;29;20656;-59
2022/05/17 07:25:36;;;;;;;6.40;2.67;;;21.90;56.40;;;;;;4946402;28;20098;-60
2022/05/17 07:28:02;;;;;;;5.05;2.33;;;21.90;56.40;;;;;;4945869;29;20047;-60
2022/05/17 07:30:29;;;;;;;5.63;2.35;;;21.90;56.40;;;;;;4946661;29;20047;-59
2022/05/17 07:32:54;;;;;;;4.72;2.33;;;21.90;56.40;;;;;;4947080;29;20051;-62
2022/05/17 07:35:20;;;;;;;5.72;2.25;;;21.90;56.40;;;;;;4945844;28;20076;-58
2022/05/17 07:37:46;;;;;;;4.32;2.20;;;21.90;56.40;;;;;;4946203;29;20610;-60
2022/05/17 07:40:12;;;;;;;4.82;2.28;;;21.90;56.40;;;;;;4946954;29;20078;-59
2022/05/17 07:42:41;;;;;;;4.72;2.30;;;21.90;56.30;;;;;;4946113;28;20043;-59
2022/05/17 07:45:09;;;;;;;4.90;2.10;;;21.90;56.40;;;;;;4946433;29;20720;-59
2022/05/17 07:47:34;;;;;;;4.82;2.00;;;21.90;56.40;;;;;;4947200;28;20317;-59
2022/05/17 07:50:00;;;;;;;5.45;2.63;;;21.90;56.40;;;;;;4949435;28;20055;-61
2022/05/17 07:52:26;;;;;;;5.50;2.13;;;21.90;56.30;;;;;;4950261;29;20043;-60
2022/05/17 07:54:52;;;;;;;4.07;1.95;;;21.90;56.30;;;;;;4950123;29;20097;-60
2022/05/17 07:57:19;;;;;;;3.97;2.20;;;21.90;56.30;;;;;;4950762;29;20122;-58
2022/05/17 07:59:45;;;;;;;4.68;2.10;;;21.90;56.30;;;;;;4949893;29;20102;-61
2022/05/17 08:02:11;;;;;;;4.60;1.98;;;21.90;56.30;;;;;;4949218;29;20492;-60
2022/05/17 08:04:37;;;;;;;4.60;2.28;;;21.90;56.30;;;;;;4949440;29;20129;-60
2022/05/17 08:07:03;;;;;;;3.88;1.88;;;22.00;56.40;;;;;;4950219;28;20039;-58
2022/05/17 08:09:28;;;;;;;3.38;1.90;;;21.90;57.10;;;;;;4949908;29;20487;-58
2022/05/17 08:11:54;;;;;;;5.07;2.10;;;21.90;56.30;;;;;;4939680;29;20083;-57
2022/05/17 08:14:21;;;;;;;4.97;2.00;;;21.90;56.30;;;;;;4949815;29;20139;-60
2022/05/17 08:16:47;;;;;;;4.72;1.83;;;21.90;56.30;;;;;;4949219;29;20066;-59
2022/05/17 08:19:13;;;;;;;4.13;1.73;;;21.90;56.30;;;;;;4949977;29;20387;-59
2022/05/17 08:21:39;;;;;;;4.93;2.03;;;22.00;56.30;;;;;;4949879;29;20043;-58
2022/05/17 08:24:06;;;;;;;5.07;2.08;;;22.00;56.30;;;;;;4949660;28;20039;-60
2022/05/17 08:29:15;;;;;;;3.25;1.48;;;22.00;56.20;;;;;;4950031;29;20089;-59
2022/05/17 08:31:42;;;;;;;4.40;1.80;;;22.00;56.20;;;;;;4948854;28;20466;-59
2022/05/17 08:34:08;;;;;;;5.63;2.00;;;22.00;56.30;;;;;;4950115;28;21034;-59
2022/05/17 08:36:34;;;;;;;4.15;2.28;;;22.00;56.20;;;;;;4949531;29;20051;-58
2022/05/17 08:39:00;;;;;;;4.80;2.22;;;22.00;56.20;;;;;;4949668;28;20043;-59
2022/05/17 08:41:36;;;;;;;5.15;2.00;;;22.00;56.20;;;;;;4949413;29;20058;-61
2022/05/17 08:44:20;;;;;;;4.15;1.77;;;22.00;56.20;;;;;;4948180;29;20054;-58
2022/05/17 08:47:11;;;;;;;5.07;1.90;;;22.00;56.10;;;;;;4949981;29;20078;-60
2022/05/17 08:49:39;;;;;;;3.05;1.83;;;22.00;56.10;;;;;;4949945;29;20074;-58
2022/05/17 08:52:15;;;;;;;3.20;1.60;;;22.00;56.10;;;;;;4945989;29;20058;-59
2022/05/17 08:54:45;;;;;;;4.32;1.80;;;22.00;56.00;;;;;;4949093;29;20126;-59
2022/05/17 08:57:35;;;;;;;5.03;1.90;;;22.00;56.00;;;;;;4949244;29;20415;-59
2022/05/17 09:00:08;;;;;;;3.88;1.90;;;22.00;56.00;;;;;;4947690;28;20583;-59
2022/05/17 09:02:51;;;;;;;2.75;1.52;;;22.00;56.00;;;;;;4941659;29;20495;-59
2022/05/17 09:05:29;;;;;;;4.45;1.90;;;22.00;56.00;;;;;;4947333;29;20047;-60
2022/05/17 09:08:01;;;;;;;3.65;2.05;;;22.00;56.60;;;;;;4948824;29;20047;-60
2022/05/17 09:10:35;;;;;;;4.20;1.73;;;22.00;55.90;;;;;;4947470;29;20051;-59
2022/05/17 09:13:28;;;;;;;5.10;1.85;;;22.00;55.90;;;;;;4946838;28;20043;-59
2022/05/17 09:15:59;;;;;;;3.20;1.60;;;22.00;55.90;;;;;;4949048;29;20046;-58
2022/05/17 09:18:26;;;;;;;2.70;1.38;;;22.00;55.90;;;;;;4949384;28;20507;-60
2022/05/17 09:20:52;;;;;;;4.25;1.98;;;22.00;55.90;;;;;;4947962;29;20389;-60
2022/05/17 09:23:18;;;;;;;2.88;1.40;;;22.00;55.90;;;;;;4948774;28;20043;-58
2022/05/17 09:25:45;;;;;;;3.22;1.50;;;22.00;55.90;;;;;;4947155;28;20047;-59
2022/05/17 09:28:16;;;;;;;5.25;1.60;;;22.00;55.90;;;;;;4947296;29;20055;-59
2022/05/17 09:30:42;;;;;;;5.18;1.70;;;22.00;55.80;;;;;;4948439;29;20071;-59
2022/05/17 09:33:15;;;;;;;2.58;1.33;;;22.00;55.80;;;;;;4947900;29;20057;-60
2022/05/17 09:35:53;;;;;;;5.28;1.70;;;22.00;55.80;;;;;;4948318;28;20074;-58
2022/05/17 09:38:19;;;;;;;2.95;1.60;;;22.00;55.80;;;;;;4948548;29;20060;-60
2022/05/17 09:40:48;;;;;;;2.53;1.35;;;22.00;55.80;;;;;;4945830;29;20050;-63
2022/05/17 09:43:16;;;;;;;4.22;1.60;;;22.00;55.80;;;;;;4941123;29;20066;-59
2022/05/17 09:45:52;;;;;;;3.20;1.70;;;22.00;55.80;;;;;;4948529;28;20074;-59
2022/05/17 09:54:29;;;;;;;4.63;1.88;;;22.00;55.80;;;;;;4948308;28;20045;-58
2022/05/17 09:57:14;;;;;;;3.40;1.48;;;22.00;55.80;;;;;;4947625;29;20094;-57
2022/05/17 09:59:41;;;;;;;4.35;1.70;;;22.00;55.80;;;;;;4941588;29;20039;-59
2022/05/17 10:02:33;;;;;;;3.05;1.40;;;22.00;55.80;;;;;;4947357;29;20043;-59
2022/05/17 10:05:09;;;;;;;4.43;1.70;;;22.00;55.60;;;;;;4947805;28;20115;-58
2022/05/17 10:07:35;;;;;;;4.53;1.63;;;22.00;55.70;;;;;;4948476;28;20043;-58
2022/05/17 10:10:30;;;;;;;3.08;1.23;;;22.00;55.70;;;;;;4947433;28;20282;-59
2022/05/17 10:13:19;;;;;;;3.67;1.50;;;22.00;55.50;;;;;;4930361;29;20527;-60
2022/05/17 10:15:49;;;;;;;4.53;1.60;;;22.00;55.60;;;;;;4947350;28;20463;-59
2022/05/17 10:18:36;;;;;;;5.18;1.70;;;22.00;55.60;;;;;;4947641;29;20100;-59
2022/05/17 10:21:26;;;;;;;2.58;1.40;;;22.00;55.50;;;;;;4947357;29;20091;-59
2022/05/17 10:24:12;;;;;;;3.03;1.58;;;22.00;55.40;;;;;;4945426;29;20043;-59
2022/05/17 10:26:46;;;;;;;2.92;1.52;;;22.00;55.40;;;;;;4947746;29;20040;-58
2022/05/17 10:29:36;;;;;;;5.03;1.52;;;21.90;55.40;;;;;;4947775;29;20117;-60
2022/05/17 10:32:26;;;;;;;4.45;1.55;;;22.00;55.40;;;;;;4946914;28;20058;-59
2022/05/17 10:35:06;;;;;;;3.15;1.83;;;22.00;55.40;;;;;;4942350;29;20077;-60
2022/05/17 10:37:40;;;;;;;5.10;1.63;;;22.00;55.50;;;;;;4946870;28;20055;-58
2022/05/17 10:40:30;;;;;;;4.45;1.70;;;22.00;55.50;;;;;;4947336;29;20039;-59
2022/05/17 10:42:57;;;;;;;2.85;1.38;;;22.00;55.50;;;;;;4936068;29;20709;-60
2022/05/17 10:45:33;;;;;;;3.60;1.55;;;21.90;55.50;;;;;;4947888;28;20440;-58
2022/05/17 10:48:32;;;;;;;4.68;1.55;;;22.00;55.60;;;;;;4947386;28;20039;-61
2022/05/17 10:51:08;;;;;;;4.82;1.75;;;22.00;55.60;;;;;;4947114;29;20062;-59
2022/05/17 10:53:55;;;;;;;4.00;1.40;;;22.00;55.60;;;;;;4946403;29;20038;-58
2022/05/17 10:56:25;;;;;;;4.47;1.95;;;22.00;55.60;;;;;;4947467;28;20178;-60
2022/05/17 10:59:15;;;;;;;3.72;1.70;;;22.00;55.70;;;;;;4946809;29;20105;-59
2022/05/17 11:01:55;;;;;;;3.85;1.30;;;22.00;55.70;;;;;;4945866;29;20043;-59
2022/05/17 11:04:27;;;;;;;4.72;1.75;;;22.00;55.80;;;;;;4946910;29;20159;-60
2022/05/17 11:07:17;;;;;;;4.85;1.50;;;22.00;55.70;;;;;;4946341;29;20082;-59
2022/05/17 11:09:53;;;;;;;3.25;1.85;;;22.00;55.70;;;;;;4947192;29;20166;-59
2022/05/17 11:12:26;;;;;;;5.93;1.67;;;22.00;55.80;;;;;;4946547;29;20051;-59
2022/05/17 11:15:03;;;;;;;3.45;1.67;;;22.00;55.80;;;;;;4946605;28;20062;-60
2022/05/17 11:17:50;;;;;;;3.92;1.60;;;22.00;55.80;;;;;;4947305;28;20050;-59
2022/05/17 11:20:32;;;;;;;3.35;1.40;;;22.00;55.80;;;;;;4946075;28;20046;-60
2022/05/17 11:23:16;;;;;;;3.08;1.27;;;22.00;55.80;;;;;;4945403;28;20047;-60
2022/05/17 11:26:11;;;;;;;6.85;1.75;;;22.00;55.70;;;;;;4950975;29;20133;-59
2022/05/17 11:28:52;;;;;;;4.68;1.58;;;22.00;55.80;;;;;;4949394;29;20189;-57
2022/05/17 11:31:32;;;;;;;3.45;1.38;;;22.00;55.90;;;;;;4950530;28;20043;-58
2022/05/17 11:34:22;;;;;;;2.80;1.50;;;22.00;55.90;;;;;;4949542;28;20035;-59
2022/05/17 11:36:49;;;;;;;4.32;1.73;;;22.00;55.80;;;;;;4949229;29;20055;-59
2022/05/17 11:39:39;;;;;;;4.43;1.88;;;22.00;55.80;;;;;;4950345;29;20039;-59
2022/05/17 11:42:10;;;;;;;4.45;1.70;;;22.00;55.80;;;;;;4949653;29;20091;-60
2022/05/17 11:44:44;;;;;;;4.75;1.77;;;22.00;55.90;;;;;;4950309;29;20047;-60
2022/05/17 11:47:34;;;;;;;4.07;1.60;;;22.00;56.00;;;;;;4949996;28;20051;-63
2022/05/17 11:50:14;;;;;;;3.72;1.60;;;22.00;55.90;;;;;;4950097;29;20047;-58
2022/05/17 11:52:40;;;;;;;4.28;1.40;;;22.00;56.00;;;;;;4950669;29;20051;-58
2022/05/17 11:55:08;;;;;;;3.70;1.58;;;22.00;56.00;;;;;;4949733;28;20035;-60
2022/05/17 11:57:36;;;;;;;3.83;1.75;;;22.00;56.00;;;;;;4950162;28;20110;-59
2022/05/17 12:00:07;;;;;;;6.93;1.95;;;22.00;56.10;;;;;;4948808;29;20380;-60
2022/05/17 12:02:51;;;;;;;4.53;1.45;;;22.00;56.10;;;;;;4947530;28;20102;-58
2022/05/17 12:05:43;;;;;;;3.65;1.60;;;22.00;56.00;;;;;;4950013;28;20946;-59
2022/05/17 12:08:44;;;;;;;4.30;1.85;;;22.00;56.00;;;;;;4949605;29;20957;-59
2022/05/17 12:11:13;;;;;;;2.50;1.58;;;22.00;56.00;;;;;;4863983;29;20621;-61
2022/05/17 12:13:55;;;;;;;3.67;1.63;;;22.00;56.10;;;;;;4933293;29;20655;-58
2022/05/17 12:16:32;;;;;;;3.55;1.50;;;22.00;56.10;;;;;;4948306;29;20126;-60
2022/05/17 12:19:02;;;;;;;2.88;1.48;;;22.00;56.10;;;;;;4950303;29;20038;-59
2022/05/17 12:21:30;;;;;;;2.38;1.45;;;22.00;56.10;;;;;;4949374;29;20054;-59
2022/05/17 12:24:25;;;;;;;3.38;1.85;;;22.00;56.10;;;;;;4949105;28;20057;-58
2022/05/17 12:27:14;;;;;;;2.72;1.52;;;22.00;56.10;;;;;;4944596;29;20050;-59
2022/05/17 12:32:30;;;;;;;3.22;1.50;;;22.00;56.20;;;;;;4949630;29;20069;-58
2022/05/17 12:34:57;;;;;;;3.15;1.45;;;22.00;56.20;;;;;;4948656;28;20035;-58
2022/05/17 12:37:29;;;;;;;3.90;1.40;;;22.00;56.20;;;;;;4948410;29;20043;-60
2022/05/17 12:43:02;;;;;;;2.83;1.35;;;22.00;56.10;;;;;;4949646;29;20106;-60
2022/05/17 12:45:31;;;;;;;5.57;1.92;;;22.00;56.10;;;;;;4940934;29;20038;-58
2022/05/17 12:48:01;;;;;;;2.80;1.50;;;22.00;56.20;;;;;;4949063;28;20053;-61
2022/05/17 12:50:41;;;;;;;4.45;1.98;;;22.00;56.20;;;;;;4949195;28;20047;-58
2022/05/17 12:53:18;;;;;;;4.40;1.60;;;22.00;56.20;;;;;;4949423;29;20141;-60
2022/05/17 12:56:19;;;;;;;3.08;1.80;;;22.00;56.20;;;;;;4949210;29;20581;-59
2022/05/17 12:59:00;;;;;;;2.92;1.58;;;22.00;56.20;;;;;;4877009;29;20137;-58
2022/05/17 13:01:32;;;;;;;7.65;1.95;;;22.00;56.20;;;;;;4940614;29;20482;-60
2022/05/17 13:04:06;;;;;;;3.78;1.42;;;22.00;56.20;;;;;;4948481;29;20507;-59
2022/05/17 13:06:36;;;;;;;5.55;1.80;;;22.00;56.20;;;;;;4941805;29;20142;-59
2022/05/17 13:09:04;;;;;;;3.00;1.60;;;22.00;56.10;;;;;;4963743;28;20054;-59
2022/05/17 13:11:29;;;;;;;3.20;1.65;;;22.00;56.10;;;;;;4941448;29;20051;-59
2022/05/17 13:14:23;;;;;;;3.08;1.40;;;22.00;56.10;;;;;;4948948;29;20042;-58
2022/05/17 13:16:51;;;;;;;3.20;1.40;;;22.10;56.00;;;;;;4940112;29;20043;-60
2022/05/17 13:19:20;;;;;;;4.05;1.45;;;22.00;56.00;;;;;;4949237;29;20419;-59
2022/05/17 13:21:52;;;;;;;2.88;1.42;;;22.10;56.00;;;;;;4948876;29;20109;-60
2022/05/17 13:24:43;;;;;;;4.40;1.40;;;22.10;55.90;;;;;;4948294;29;20058;-60